createdAt,value
2018-08-17T00:25:23.195Z,3.83
2018-08-17T00:27:53.497Z,3.37
2018-08-17T00:30:24.697Z,3.70
2018-08-17T00:32:55.729Z,3.23
2018-08-17T00:35:25.723Z,2.93
2018-08-17T00:37:57.489Z,3.60
2018-08-17T00:40:29.005Z,3.17
2018-08-17T00:42:59.033Z,3.40
2018-08-17T00:45:28.995Z,2.73
2018-08-17T00:48:01.456Z,2.63
2018-08-17T00:50:31.498Z,2.93
2018-08-17T00:53:01.535Z,3.20
2018-08-17T00:55:34.387Z,3.03
2018-08-17T00:58:04.511Z,3.33
2018-08-17T01:00:34.615Z,3.10
2018-08-17T01:03:04.844Z,2.95
2018-08-17T01:52:54.567Z,3.03
2018-08-17T01:55:25.356Z,2.90
2018-08-17T01:57:55.472Z,3.17
2018-08-17T02:00:25.657Z,3.83
2018-08-17T02:02:58.570Z,3.53
2018-08-17T02:05:28.606Z,3.83
2018-08-17T02:07:58.855Z,3.00
2018-08-17T02:10:29.206Z,3.70
2018-08-17T02:12:59.344Z,3.27
2018-08-17T02:15:29.494Z,2.93
2018-08-17T02:17:59.606Z,3.50
2018-08-17T02:20:29.856Z,3.00
2018-08-17T02:23:00.586Z,3.30
2018-08-17T02:25:31.587Z,3.13
2018-08-17T02:28:01.772Z,3.50
2018-08-17T02:30:32.879Z,3.47
2018-08-17T05:27:21.992Z,5.00
2018-08-17T05:29:52.259Z,4.77
2018-08-17T05:32:22.801Z,5.47
2018-08-17T05:34:53.129Z,4.93
2018-08-17T05:37:23.342Z,5.77
2018-08-17T05:39:53.671Z,5.30
2018-08-17T05:42:31.387Z,4.80
2018-08-17T05:45:01.796Z,5.43
2018-08-17T05:47:32.235Z,4.80
2018-08-17T05:50:02.728Z,5.40
2018-08-17T05:52:33.976Z,5.20
2018-08-17T05:55:05.461Z,4.90
2018-08-17T05:57:38.314Z,4.50
2018-08-17T06:00:11.633Z,4.37
2018-08-17T06:02:41.866Z,3.83
2018-08-17T06:05:12.385Z,4.00
2018-08-17T06:07:42.619Z,3.47
2018-08-17T06:10:12.588Z,3.50
2018-08-17T06:12:43.433Z,3.47
2018-08-17T06:15:13.475Z,3.73
2018-08-17T06:17:43.462Z,3.70
2018-08-17T06:20:13.517Z,2.70
2018-08-17T06:22:44.733Z,2.97
2018-08-17T06:25:15.627Z,2.50
2018-08-17T06:27:46.188Z,2.70
2018-08-17T06:30:16.955Z,2.47
2018-08-17T06:32:47.226Z,2.60
2018-08-17T06:35:19.233Z,3.30
2018-08-17T06:37:49.764Z,2.80
2018-08-17T06:40:20.266Z,3.43
2018-08-17T06:42:51.571Z,3.20
2018-08-17T06:45:22.187Z,2.93
2018-08-17T06:47:55.691Z,2.47
2018-08-17T06:50:27.718Z,2.53
2018-08-17T06:52:57.739Z,2.20
2018-08-17T06:55:29.309Z,2.20
2018-08-17T06:57:59.514Z,1.93
2018-08-17T07:00:29.892Z,2.60
2018-08-17T07:03:00.417Z,2.13
2018-08-17T07:05:32.435Z,1.80
2018-08-17T07:08:02.980Z,2.50
2018-08-17T07:10:34.740Z,2.47
2018-08-17T07:13:05.969Z,2.40
2018-08-17T07:15:38.761Z,2.73
2018-08-17T07:18:09.637Z,2.90
2018-08-17T07:20:42.011Z,2.60
2018-08-17T07:23:13.569Z,2.40
2018-08-17T07:25:46.843Z,2.53
2018-08-17T07:28:17.896Z,2.30
2018-08-17T07:30:48.111Z,2.33
2018-08-17T07:33:18.311Z,2.03
2018-08-17T07:35:49.331Z,2.10
2018-08-17T07:38:20.449Z,2.00
2018-08-17T07:40:51.342Z,2.20
2018-08-17T07:43:22.800Z,2.30
2018-08-17T07:45:52.995Z,2.20
2018-08-17T07:48:23.393Z,2.40
2018-08-17T07:50:53.798Z,2.03
2018-08-17T07:53:24.647Z,2.13
2018-08-17T07:55:55.386Z,2.27
2018-08-17T07:58:26.725Z,2.20
2018-08-17T08:00:56.941Z,1.98
2018-08-17T08:03:27.001Z,1.72
2018-08-17T08:05:57.374Z,1.90
2018-08-17T08:08:27.565Z,1.80
2018-08-17T08:10:58.751Z,2.10
2018-08-17T08:13:29.312Z,1.90
2018-08-17T08:15:59.901Z,1.65
2018-08-17T08:18:30.171Z,1.60
2018-08-17T08:21:00.811Z,1.80
2018-08-17T08:23:32.026Z,1.67
2018-08-17T08:26:03.692Z,1.72
2018-08-17T08:28:35.749Z,1.87
2018-08-17T08:31:06.094Z,1.75
2018-08-17T08:33:36.539Z,1.60
2018-08-17T08:36:08.324Z,1.92
2018-08-17T08:38:38.718Z,1.80
2018-08-17T08:41:08.828Z,1.47
2018-08-17T08:43:39.206Z,1.40
2018-08-17T08:46:10.239Z,1.27
2018-08-17T08:48:41.045Z,1.52
2018-08-17T08:51:13.525Z,1.50
2018-08-17T08:53:43.977Z,1.57
2018-08-17T08:56:14.140Z,1.80
2018-08-17T08:58:44.335Z,1.70
2018-08-17T09:01:14.582Z,1.50
2018-08-17T09:03:44.774Z,1.82
2018-08-17T09:06:15.272Z,1.50
2018-08-17T09:08:45.593Z,1.30
2018-08-17T09:11:18.183Z,1.80
2018-08-17T09:13:48.747Z,1.50
2018-08-17T09:16:20.753Z,1.67
2018-08-17T09:18:50.963Z,1.50
2018-08-17T09:21:21.981Z,1.60
2018-08-17T09:23:53.324Z,1.70
2018-08-17T09:26:23.521Z,1.75
2018-08-17T09:28:53.654Z,2.30
2018-08-17T09:31:23.803Z,1.60
2018-08-17T09:33:54.735Z,1.50
2018-08-17T09:36:25.600Z,1.45
2018-08-17T09:38:56.748Z,1.50
2018-08-17T09:41:27.705Z,1.92
2018-08-17T09:43:58.688Z,1.70
2018-08-17T09:46:31.474Z,1.60
2018-08-17T09:49:02.787Z,1.70
2018-08-17T09:51:36.581Z,1.85
2018-08-17T09:54:07.860Z,1.72
2018-08-17T09:56:40.435Z,1.45
2018-08-17T09:59:12.121Z,1.77
2018-08-17T10:01:48.487Z,1.27
2018-08-17T10:04:24.267Z,1.62
2018-08-17T10:07:00.238Z,1.50
2018-08-17T10:09:35.807Z,2.50
2018-08-17T10:12:08.318Z,2.08
2018-08-17T10:14:39.097Z,1.77
2018-08-17T10:17:09.558Z,1.77
2018-08-17T10:19:42.608Z,1.80
2018-08-17T10:22:12.993Z,1.65
2018-08-17T10:24:43.395Z,1.70
2018-08-17T10:27:13.695Z,2.40
2018-08-17T10:29:44.997Z,1.70
2018-08-17T10:32:15.217Z,1.65
2018-08-17T10:34:46.269Z,1.50
2018-08-17T10:37:18.150Z,1.60
2018-08-17T10:39:49.158Z,1.37
2018-08-17T10:42:19.566Z,2.40
2018-08-17T10:44:49.744Z,1.55
2018-08-17T10:47:21.991Z,1.77
2018-08-17T10:49:52.235Z,1.98
2018-08-17T10:54:58.950Z,1.85
2018-08-17T10:57:30.029Z,1.65
2018-08-17T11:05:01.483Z,1.60
2018-08-17T11:07:40.516Z,2.00
2018-08-17T11:10:12.640Z,1.70
2018-08-17T11:12:46.020Z,1.60
2018-08-17T11:15:17.192Z,1.77
2018-08-17T11:17:49.831Z,1.47
2018-08-17T11:20:20.330Z,1.70
2018-08-17T11:22:50.774Z,1.80
2018-08-17T11:25:21.054Z,1.90
2018-08-17T11:27:52.196Z,1.42
2018-08-17T11:30:23.032Z,1.60
2018-08-17T11:32:53.944Z,1.40
2018-08-17T11:35:25.064Z,1.50
2018-08-17T11:37:55.545Z,1.52
2018-08-17T11:40:26.015Z,1.42
2018-08-17T11:42:57.554Z,1.45
2018-08-17T11:45:28.724Z,1.40
2018-08-17T11:48:00.115Z,1.45
2018-08-17T11:50:30.984Z,1.40
2018-08-17T11:53:03.438Z,1.57
2018-08-17T11:55:34.400Z,1.60
2018-08-17T11:58:05.689Z,2.00
2018-08-17T12:00:37.007Z,1.75
2018-08-17T12:03:08.555Z,1.67
2018-08-17T12:05:45.772Z,1.70
2018-08-17T12:08:16.451Z,1.65
2018-08-17T12:10:50.384Z,1.60
2018-08-17T12:13:21.068Z,1.50
2018-08-17T12:15:57.875Z,1.75
2018-08-17T12:18:28.407Z,6.13
2018-08-17T12:21:01.233Z,1.60
2018-08-17T12:23:31.900Z,1.60
2018-08-17T12:26:05.432Z,1.90
2018-08-17T12:28:36.125Z,1.60
2018-08-17T12:31:06.466Z,1.70
2018-08-17T12:33:38.275Z,1.60
2018-08-17T12:36:11.521Z,2.10
2018-08-17T12:38:42.834Z,1.87
2018-08-17T12:41:13.366Z,1.60
2018-08-17T12:43:44.608Z,1.50
2018-08-17T12:46:15.065Z,1.50
2018-08-17T12:48:45.781Z,1.82
2018-08-17T12:51:16.447Z,1.85
2018-08-17T12:53:47.416Z,1.70
2018-08-17T12:56:18.403Z,1.77
2018-08-17T12:58:48.407Z,2.10
2018-08-17T13:01:18.553Z,1.70
2018-08-17T13:03:52.041Z,1.90
2018-08-17T13:06:23.205Z,1.80
2018-08-17T13:08:53.879Z,1.70
2018-08-17T13:11:23.981Z,1.82
2018-08-17T13:13:58.263Z,1.70
2018-08-17T13:16:29.905Z,1.50
2018-08-17T13:19:00.667Z,1.80
2018-08-17T13:21:31.054Z,1.70
2018-08-17T13:24:01.194Z,1.60
2018-08-17T13:26:31.314Z,1.97
2018-08-17T13:29:02.801Z,1.70
2018-08-17T13:31:33.665Z,1.70
2018-08-17T13:34:03.765Z,1.82
2018-08-17T13:36:34.793Z,1.50
2018-08-17T13:39:08.175Z,1.67
2018-08-17T13:41:38.970Z,1.67
2018-08-17T13:44:11.959Z,1.90
2018-08-17T13:46:43.896Z,1.70
2018-08-17T13:49:14.167Z,1.50
2018-08-17T13:51:45.169Z,1.60
2018-08-17T13:54:16.463Z,1.62
2018-08-17T13:56:48.229Z,1.50
2018-08-17T13:59:19.523Z,1.67
2018-08-17T14:01:50.028Z,1.60
2018-08-17T14:04:20.385Z,1.82
2018-08-17T14:06:51.779Z,1.70
2018-08-17T14:09:22.817Z,1.50
2018-08-17T14:11:53.646Z,1.42
2018-08-17T14:14:25.510Z,1.32
2018-08-17T14:16:55.703Z,1.60
2018-08-17T14:19:26.461Z,1.70
2018-08-17T14:21:56.762Z,1.87
2018-08-17T14:24:26.907Z,1.52
2018-08-17T14:26:58.572Z,1.30
2018-08-17T14:29:29.729Z,2.27
2018-08-17T14:32:00.032Z,1.57
2018-08-17T14:34:36.131Z,1.47
2018-08-17T14:37:07.418Z,1.63
2018-08-17T14:39:38.729Z,2.05
2018-08-17T14:42:09.800Z,1.62
2018-08-17T14:44:41.920Z,1.50
2018-08-17T14:47:13.264Z,1.70
2018-08-17T14:49:43.656Z,1.40
2018-08-17T14:52:14.429Z,1.60
2018-08-17T14:54:44.491Z,1.55
2018-08-17T14:57:14.734Z,1.80
2018-08-17T14:59:46.233Z,1.67
2018-08-17T15:02:16.862Z,1.70
2018-08-17T15:04:47.136Z,1.65
2018-08-17T15:07:17.437Z,1.80
2018-08-17T15:09:48.409Z,1.57
2018-08-17T15:12:18.600Z,1.60
2018-08-17T15:14:49.897Z,1.37
2018-08-17T15:17:20.007Z,1.80
2018-08-17T15:19:50.033Z,1.80
2018-08-17T15:22:21.194Z,1.67
2018-08-17T15:24:51.519Z,1.53
2018-08-17T15:27:21.640Z,4.55
2018-08-17T15:29:51.724Z,1.52
2018-08-17T15:32:21.844Z,2.00
2018-08-17T15:34:52.058Z,1.80
2018-08-17T15:37:22.591Z,1.47
2018-08-17T15:39:54.199Z,1.70
2018-08-17T15:42:24.332Z,1.70
2018-08-17T15:44:55.939Z,1.65
2018-08-17T15:47:28.464Z,1.55
2018-08-17T15:50:12.504Z,1.67
2018-08-17T15:52:44.473Z,1.60
2018-08-17T15:55:14.932Z,1.62
2018-08-17T15:57:45.132Z,1.60
2018-08-17T16:00:19.962Z,1.50
2018-08-17T16:02:50.725Z,1.70
2018-08-17T16:05:20.887Z,1.40
2018-08-17T16:07:51.718Z,1.47
2018-08-17T16:12:51.358Z,1.50
2018-08-17T16:15:21.955Z,1.60
2018-08-17T16:17:53.649Z,1.85
2018-08-17T16:20:23.702Z,1.50
2018-08-17T16:22:54.797Z,1.60
2018-08-17T16:25:24.882Z,1.57
2018-08-17T16:42:52.887Z,1.70
2018-08-17T16:45:24.515Z,1.70
2018-08-17T16:47:54.567Z,1.70
2018-08-17T16:50:26.162Z,2.10
2018-08-17T16:52:57.988Z,1.92
2018-08-17T16:55:28.629Z,2.05
2018-08-17T16:57:58.737Z,2.00
2018-08-17T17:00:28.827Z,2.80
2018-08-17T17:02:59.159Z,2.17
2018-08-17T17:05:30.032Z,2.20
2018-08-17T17:08:00.141Z,2.65
2018-08-17T17:10:31.776Z,2.80
2018-08-17T17:13:02.005Z,4.15
2018-08-17T17:15:32.267Z,2.47
2018-08-17T17:18:09.396Z,4.17
2018-08-17T17:20:41.030Z,2.20
2018-08-17T17:23:12.732Z,9.30
2018-08-17T17:25:42.935Z,4.78
2018-08-17T17:28:13.037Z,3.70
2018-08-17T17:30:50.580Z,3.30
2018-08-17T17:33:22.065Z,2.62
2018-08-17T17:35:53.426Z,2.57
2018-08-17T17:38:24.019Z,3.00
2018-08-17T17:40:55.732Z,3.55
2018-08-17T17:43:26.255Z,3.40
2018-08-17T17:45:57.611Z,2.62
2018-08-17T17:48:28.254Z,2.25
2018-08-17T17:50:58.438Z,2.92
2018-08-17T17:53:29.164Z,2.70
2018-08-17T17:55:59.376Z,2.50
2018-08-17T17:58:29.861Z,2.30
2018-08-17T18:01:05.158Z,2.20
2018-08-17T18:03:37.498Z,2.52
2018-08-17T18:06:09.040Z,2.70
2018-08-17T18:08:39.541Z,2.85
2018-08-17T18:11:12.225Z,3.10
2018-08-17T18:13:42.839Z,3.20
2018-08-17T18:16:13.290Z,2.60
2018-08-17T18:18:45.044Z,2.00
2018-08-17T18:21:16.171Z,1.92
2018-08-17T18:23:52.806Z,2.30
2018-08-17T18:26:25.238Z,2.00
2018-08-17T18:28:56.090Z,1.93
2018-08-17T18:31:29.102Z,2.05
2018-08-17T18:33:59.584Z,1.80
2018-08-17T18:36:30.777Z,1.90
2018-08-17T18:39:01.359Z,1.80
2018-08-17T18:41:32.069Z,2.27
2018-08-17T18:44:04.066Z,1.70
2018-08-17T18:46:35.417Z,1.95
2018-08-17T18:49:06.103Z,1.80
2018-08-17T18:51:38.077Z,1.82
2018-08-17T18:54:08.634Z,2.10
2018-08-17T18:56:40.405Z,2.00
2018-08-17T18:59:13.197Z,2.00
2018-08-17T19:01:49.674Z,1.90
2018-08-17T19:04:30.715Z,1.87
2018-08-17T19:07:04.085Z,2.10
2018-08-17T19:09:34.794Z,1.90
2018-08-17T19:12:07.283Z,1.90
2018-08-17T19:14:43.278Z,3.55
2018-08-17T19:17:20.311Z,2.00
2018-08-17T19:19:52.234Z,2.00
2018-08-17T19:22:24.640Z,2.02
2018-08-17T19:24:58.157Z,2.00
2018-08-17T19:27:34.278Z,2.00
2018-08-17T19:30:26.907Z,1.80
2018-08-17T19:32:59.125Z,2.33
2018-08-17T19:35:30.461Z,3.20
2018-08-17T19:38:01.395Z,2.70
2018-08-17T19:40:32.762Z,2.22
2018-08-17T19:43:03.005Z,2.20
2018-08-17T19:45:33.330Z,1.90
2018-08-17T19:48:04.958Z,1.95
2018-08-17T19:50:36.202Z,2.00
2018-08-17T19:53:07.212Z,3.30
2018-08-17T19:55:38.363Z,2.70
2018-08-17T19:58:09.039Z,2.27
2018-08-17T20:00:40.201Z,6.80
2018-08-17T20:03:12.284Z,4.22
2018-08-17T20:05:43.238Z,2.72
2018-08-17T20:08:13.585Z,2.83
2018-08-17T20:10:44.517Z,1.75
2018-08-17T20:13:14.982Z,1.90
2018-08-17T20:15:46.487Z,1.80
2018-08-17T20:18:19.013Z,4.37
2018-08-17T20:20:50.375Z,2.40
2018-08-17T20:23:21.131Z,5.12
2018-08-17T20:25:52.007Z,3.08
2018-08-17T20:28:22.855Z,3.00
2018-08-17T20:30:54.194Z,3.33
2018-08-17T20:33:28.792Z,2.10
2018-08-17T20:36:01.074Z,7.60
2018-08-17T20:38:31.828Z,3.12
2018-08-17T20:41:02.014Z,3.10
2018-08-17T20:43:32.894Z,3.72
2018-08-17T20:46:03.749Z,4.87
2018-08-17T20:48:35.123Z,1.92
2018-08-17T20:51:09.307Z,2.20
2018-08-17T20:53:39.424Z,2.35
2018-08-17T20:56:11.567Z,1.98
2018-08-17T20:58:42.596Z,2.67
2018-08-17T21:01:12.818Z,2.95
2018-08-17T21:03:43.147Z,2.40
2018-08-17T21:06:13.723Z,2.20
2018-08-17T21:08:43.931Z,2.77
2018-08-17T21:11:14.034Z,2.47
2018-08-17T21:13:44.335Z,2.47
2018-08-17T21:16:15.760Z,2.37
2018-08-17T21:18:46.200Z,2.00
2018-08-17T21:21:17.505Z,2.10
2018-08-17T21:23:48.317Z,2.00
2018-08-17T21:26:20.861Z,2.20
2018-08-17T21:28:51.806Z,2.98
2018-08-17T21:31:23.257Z,5.53
2018-08-17T21:33:54.905Z,4.17
2018-08-17T21:36:25.074Z,2.27
2018-08-17T21:39:13.673Z,2.40
2018-08-17T21:41:45.082Z,2.17
2018-08-17T21:44:18.179Z,2.15
2018-08-17T21:47:05.297Z,2.33
2018-08-17T21:49:42.400Z,2.30
2018-08-17T21:52:26.416Z,2.37
2018-08-17T21:54:59.261Z,2.50
2018-08-17T21:57:31.419Z,2.40
2018-08-17T22:00:04.807Z,2.77
2018-08-17T22:02:37.081Z,2.53
2018-08-17T22:05:10.395Z,2.60
2018-08-17T22:07:41.266Z,2.72
2018-08-17T22:10:14.932Z,2.60
2018-08-17T22:12:45.755Z,2.85
2018-08-17T22:15:17.390Z,2.85
2018-08-17T22:17:47.542Z,2.90
2018-08-17T22:20:18.770Z,2.70
2018-08-17T22:22:49.624Z,3.00
2018-08-17T22:25:19.789Z,2.90
2018-08-17T22:27:50.922Z,2.70
2018-08-17T22:30:24.463Z,2.92
2018-08-17T22:32:55.984Z,3.20
2018-08-17T22:35:27.793Z,3.10
2018-08-17T22:37:59.832Z,2.87
2018-08-17T22:40:31.393Z,3.22
2018-08-17T22:43:03.680Z,3.00
2018-08-17T22:45:34.523Z,3.00
2018-08-17T22:48:05.006Z,3.45
2018-08-17T22:50:36.028Z,3.00
2018-08-17T22:53:08.060Z,3.85
2018-08-17T22:55:40.236Z,4.03
2018-08-17T22:58:11.309Z,3.90
2018-08-17T23:00:42.648Z,2.75
2018-08-17T23:03:13.294Z,2.67
2018-08-17T23:05:43.955Z,2.65
2018-08-17T23:08:14.903Z,2.90
2018-08-17T23:10:47.055Z,3.87
2018-08-17T23:13:20.098Z,3.40
2018-08-17T23:15:50.803Z,2.98
2018-08-17T23:18:22.377Z,3.33
2018-08-17T23:20:52.749Z,2.67
2018-08-17T23:23:23.912Z,3.00
2018-08-17T23:25:54.142Z,2.83
2018-08-17T23:28:29.489Z,2.92
2018-08-17T23:30:59.629Z,2.85
2018-08-17T23:33:30.684Z,2.60
2018-08-17T23:36:01.357Z,2.40
2018-08-17T23:38:34.637Z,2.52
2018-08-17T23:41:10.099Z,2.50
2018-08-17T23:43:42.129Z,2.95
2018-08-17T23:46:12.490Z,2.58
2018-08-17T23:48:43.507Z,2.50
2018-08-17T23:51:13.961Z,2.65
2018-08-17T23:53:44.023Z,2.60
2018-08-17T23:56:14.237Z,2.40
2018-08-17T23:58:45.383Z,2.60
